sensor_id;sensor_type;location;lat;lon;timestamp;temperature;humidity
48744;DHT22;34538;48.836;9.174;2022-07-26T00:00:15;21.40;94.30
48744;DHT22;34538;48.836;9.174;2022-07-26T00:02:42;21.40;94.00
48744;DHT22;34538;48.836;9.174;2022-07-26T00:05:08;21.50;93.80
48744;DHT22;34538;48.836;9.174;2022-07-26T00:07:34;21.60;93.60
48744;DHT22;34538;48.836;9.174;2022-07-26T00:09:59;21.70;93.40
48744;DHT22;34538;48.836;9.174;2022-07-26T00:12:25;21.80;93.30
48744;DHT22;34538;48.836;9.174;2022-07-26T00:14:51;21.80;93.00
48744;DHT22;34538;48.836;9.174;2022-07-26T00:17:17;21.90;93.00
48744;DHT22;34538;48.836;9.174;2022-07-26T00:19:43;22.00;92.90
48744;DHT22;34538;48.836;9.174;2022-07-26T00:22:08;22.00;92.90
48744;DHT22;34538;48.836;9.174;2022-07-26T00:24:52;22.20;92.80
48744;DHT22;34538;48.836;9.174;2022-07-26T00:27:18;22.20;92.60
48744;DHT22;34538;48.836;9.174;2022-07-26T00:29:44;22.30;92.60
48744;DHT22;34538;48.836;9.174;2022-07-26T00:32:09;22.30;92.40
48744;DHT22;34538;48.836;9.174;2022-07-26T00:34:35;22.40;92.40
48744;DHT22;34538;48.836;9.174;2022-07-26T00:37:00;22.40;92.40
48744;DHT22;34538;48.836;9.174;2022-07-26T00:39:26;22.50;92.60
48744;DHT22;34538;48.836;9.174;2022-07-26T00:41:53;22.50;92.60
48744;DHT22;34538;48.836;9.174;2022-07-26T00:44:19;22.50;92.60
48744;DHT22;34538;48.836;9.174;2022-07-26T00:46:45;22.50;92.60
48744;DHT22;34538;48.836;9.174;2022-07-26T00:49:11;22.60;92.60
48744;DHT22;34538;48.836;9.174;2022-07-26T00:51:37;22.60;92.80
48744;DHT22;34538;48.836;9.174;2022-07-26T00:54:04;22.60;92.80
48744;DHT22;34538;48.836;9.174;2022-07-26T00:56:31;22.70;92.70
48744;DHT22;34538;48.836;9.174;2022-07-26T00:58:57;22.70;92.80
48744;DHT22;34538;48.836;9.174;2022-07-26T01:01:23;22.70;92.70
48744;DHT22;34538;48.836;9.174;2022-07-26T01:03:50;22.70;92.70
48744;DHT22;34538;48.836;9.174;2022-07-26T01:06:17;22.70;92.80
48744;DHT22;34538;48.836;9.174;2022-07-26T01:08:43;22.70;93.40
48744;DHT22;34538;48.836;9.174;2022-07-26T01:11:09;22.70;94.70
48744;DHT22;34538;48.836;9.174;2022-07-26T01:13:35;22.50;97.70
48744;DHT22;34538;48.836;9.174;2022-07-26T01:16:00;21.90;99.90
48744;DHT22;34538;48.836;9.174;2022-07-26T01:18:26;21.30;99.90
48744;DHT22;34538;48.836;9.174;2022-07-26T01:20:52;20.70;99.90
48744;DHT22;34538;48.836;9.174;2022-07-26T01:23:18;20.30;99.90
48744;DHT22;34538;48.836;9.174;2022-07-26T01:25:44;19.90;99.90
48744;DHT22;34538;48.836;9.174;2022-07-26T01:28:10;19.60;99.90
48744;DHT22;34538;48.836;9.174;2022-07-26T01:30:36;19.30;99.90
48744;DHT22;34538;48.836;9.174;2022-07-26T01:33:01;19.10;99.90
48744;DHT22;34538;48.836;9.174;2022-07-26T01:35:27;19.00;99.90
48744;DHT22;34538;48.836;9.174;2022-07-26T01:37:53;18.90;99.90
48744;DHT22;34538;48.836;9.174;2022-07-26T01:40:18;18.90;99.90
48744;DHT22;34538;48.836;9.174;2022-07-26T01:42:44;18.80;99.90
48744;DHT22;34538;48.836;9.174;2022-07-26T01:45:11;18.80;99.90
48744;DHT22;34538;48.836;9.174;2022-07-26T01:47:37;18.80;99.90
48744;DHT22;34538;48.836;9.174;2022-07-26T01:50:05;18.80;99.90
48744;DHT22;34538;48.836;9.174;2022-07-26T01:52:31;18.90;99.90
48744;DHT22;34538;48.836;9.174;2022-07-26T01:54:57;18.90;99.90
48744;DHT22;34538;48.836;9.174;2022-07-26T01:57:23;18.90;99.90
48744;DHT22;34538;48.836;9.174;2022-07-26T01:59:49;18.90;99.90
48744;DHT22;34538;48.836;9.174;2022-07-26T02:02:15;18.90;99.90
48744;DHT22;34538;48.836;9.174;2022-07-26T02:04:40;18.90;99.90
48744;DHT22;34538;48.836;9.174;2022-07-26T02:07:29;19.00;99.90
48744;DHT22;34538;48.836;9.174;2022-07-26T02:09:55;19.00;99.90
48744;DHT22;34538;48.836;9.174;2022-07-26T02:12:21;19.00;99.90
48744;DHT22;34538;48.836;9.174;2022-07-26T02:14:47;19.00;99.90
48744;DHT22;34538;48.836;9.174;2022-07-26T02:17:13;19.00;99.90
48744;DHT22;34538;48.836;9.174;2022-07-26T02:19:39;19.00;99.90
48744;DHT22;34538;48.836;9.174;2022-07-26T02:22:04;19.00;99.90
48744;DHT22;34538;48.836;9.174;2022-07-26T02:24:30;19.10;99.90
48744;DHT22;34538;48.836;9.174;2022-07-26T02:26:57;19.10;99.90
48744;DHT22;34538;48.836;9.174;2022-07-26T02:29:24;19.10;99.90
48744;DHT22;34538;48.836;9.174;2022-07-26T02:31:50;19.00;99.90
48744;DHT22;34538;48.836;9.174;2022-07-26T02:34:16;19.00;99.90
48744;DHT22;34538;48.836;9.174;2022-07-26T02:36:42;19.00;99.90
48744;DHT22;34538;48.836;9.174;2022-07-26T02:39:08;19.10;99.90
48744;DHT22;34538;48.836;9.174;2022-07-26T02:41:34;19.10;99.90
48744;DHT22;34538;48.836;9.174;2022-07-26T02:44:00;19.00;99.90
48744;DHT22;34538;48.836;9.174;2022-07-26T02:46:25;19.10;99.90
48744;DHT22;34538;48.836;9.174;2022-07-26T02:48:51;19.10;99.90
48744;DHT22;34538;48.836;9.174;2022-07-26T02:51:16;19.10;99.90
48744;DHT22;34538;48.836;9.174;2022-07-26T02:53:42;19.10;99.90
48744;DHT22;34538;48.836;9.174;2022-07-26T02:56:08;19.10;99.90
48744;DHT22;34538;48.836;9.174;2022-07-26T02:58:33;19.10;99.90
48744;DHT22;34538;48.836;9.174;2022-07-26T03:00:59;19.00;99.90
48744;DHT22;34538;48.836;9.174;2022-07-26T03:03:25;19.10;99.90
48744;DHT22;34538;48.836;9.174;2022-07-26T03:05:50;19.00;99.90
48744;DHT22;34538;48.836;9.174;2022-07-26T03:08:16;19.10;99.90
48744;DHT22;34538;48.836;9.174;2022-07-26T03:10:42;19.10;99.90
48744;DHT22;34538;48.836;9.174;2022-07-26T03:13:07;19.10;99.90
48744;DHT22;34538;48.836;9.174;2022-07-26T03:15:33;19.10;99.90
48744;DHT22;34538;48.836;9.174;2022-07-26T03:17:59;19.10;99.90
48744;DHT22;34538;48.836;9.174;2022-07-26T03:20:25;19.10;99.90
48744;DHT22;34538;48.836;9.174;2022-07-26T03:22:50;19.10;99.90
48744;DHT22;34538;48.836;9.174;2022-07-26T03:25:16;19.00;99.90
48744;DHT22;34538;48.836;9.174;2022-07-26T03:27:42;19.00;99.90
48744;DHT22;34538;48.836;9.174;2022-07-26T03:30:08;19.10;99.90
48744;DHT22;34538;48.836;9.174;2022-07-26T03:32:34;19.00;99.90
48744;DHT22;34538;48.836;9.174;2022-07-26T03:34:59;19.10;99.90
48744;DHT22;34538;48.836;9.174;2022-07-26T03:37:25;19.10;99.90
48744;DHT22;34538;48.836;9.174;2022-07-26T03:39:51;19.10;99.90
48744;DHT22;34538;48.836;9.174;2022-07-26T03:42:16;19.10;99.90
48744;DHT22;34538;48.836;9.174;2022-07-26T03:44:42;19.20;99.90
48744;DHT22;34538;48.836;9.174;2022-07-26T03:47:08;19.10;99.90
48744;DHT22;34538;48.836;9.174;2022-07-26T03:49:33;19.10;99.90
48744;DHT22;34538;48.836;9.174;2022-07-26T03:51:59;19.10;99.90
48744;DHT22;34538;48.836;9.174;2022-07-26T03:54:25;19.20;99.90
48744;DHT22;34538;48.836;9.174;2022-07-26T03:56:50;19.10;99.90
48744;DHT22;34538;48.836;9.174;2022-07-26T03:59:16;19.20;99.90
48744;DHT22;34538;48.836;9.174;2022-07-26T04:01:44;19.20;99.90
48744;DHT22;34538;48.836;9.174;2022-07-26T04:04:12;19.20;99.90
48744;DHT22;34538;48.836;9.174;2022-07-26T04:06:38;19.10;99.90
48744;DHT22;34538;48.836;9.174;2022-07-26T04:09:05;19.10;99.90
48744;DHT22;34538;48.836;9.174;2022-07-26T04:11:30;19.10;99.90
48744;DHT22;34538;48.836;9.174;2022-07-26T04:13:57;19.10;99.90
48744;DHT22;34538;48.836;9.174;2022-07-26T04:16:23;19.10;99.90
48744;DHT22;34538;48.836;9.174;2022-07-26T04:18:48;19.10;99.90
48744;DHT22;34538;48.836;9.174;2022-07-26T04:21:14;19.10;99.90
48744;DHT22;34538;48.836;9.174;2022-07-26T04:23:40;19.20;99.90
48744;DHT22;34538;48.836;9.174;2022-07-26T04:26:05;19.20;99.90
48744;DHT22;34538;48.836;9.174;2022-07-26T04:28:31;19.20;99.90
48744;DHT22;34538;48.836;9.174;2022-07-26T04:30:58;19.20;99.90
48744;DHT22;34538;48.836;9.174;2022-07-26T04:33:25;19.20;99.90
48744;DHT22;34538;48.836;9.174;2022-07-26T04:35:51;19.20;99.90
48744;DHT22;34538;48.836;9.174;2022-07-26T04:38:17;19.30;99.90
48744;DHT22;34538;48.836;9.174;2022-07-26T04:40:43;19.30;99.90
48744;DHT22;34538;48.836;9.174;2022-07-26T04:43:09;19.30;99.90
48744;DHT22;34538;48.836;9.174;2022-07-26T04:45:35;19.30;99.90
48744;DHT22;34538;48.836;9.174;2022-07-26T04:48:01;19.40;99.90
48744;DHT22;34538;48.836;9.174;2022-07-26T04:50:26;19.40;99.90
48744;DHT22;34538;48.836;9.174;2022-07-26T04:52:52;19.40;99.90
48744;DHT22;34538;48.836;9.174;2022-07-26T04:55:19;19.30;99.90
48744;DHT22;34538;48.836;9.174;2022-07-26T04:57:45;19.30;99.90
48744;DHT22;34538;48.836;9.174;2022-07-26T05:00:13;19.40;99.90
48744;DHT22;34538;48.836;9.174;2022-07-26T05:02:39;19.40;99.90
48744;DHT22;34538;48.836;9.174;2022-07-26T05:05:06;19.50;99.90
48744;DHT22;34538;48.836;9.174;2022-07-26T05:07:39;19.60;99.90
48744;DHT22;34538;48.836;9.174;2022-07-26T05:10:05;19.70;99.90
48744;DHT22;34538;48.836;9.174;2022-07-26T05:12:31;19.80;99.90
48744;DHT22;34538;48.836;9.174;2022-07-26T05:14:57;20.00;99.90
48744;DHT22;34538;48.836;9.174;2022-07-26T05:17:22;20.10;99.90
48744;DHT22;34538;48.836;9.174;2022-07-26T05:19:48;20.30;99.90
48744;DHT22;34538;48.836;9.174;2022-07-26T05:22:13;20.40;99.90
48744;DHT22;34538;48.836;9.174;2022-07-26T05:24:39;20.50;99.90
48744;DHT22;34538;48.836;9.174;2022-07-26T05:27:05;20.50;99.90
48744;DHT22;34538;48.836;9.174;2022-07-26T05:29:30;20.60;99.90
48744;DHT22;34538;48.836;9.174;2022-07-26T05:31:56;20.80;99.90
48744;DHT22;34538;48.836;9.174;2022-07-26T05:34:22;20.90;99.90
48744;DHT22;34538;48.836;9.174;2022-07-26T05:36:49;21.00;99.90
48744;DHT22;34538;48.836;9.174;2022-07-26T05:39:15;20.90;99.90
48744;DHT22;34538;48.836;9.174;2022-07-26T05:41:41;20.80;99.90
48744;DHT22;34538;48.836;9.174;2022-07-26T05:44:06;20.70;99.90
48744;DHT22;34538;48.836;9.174;2022-07-26T05:46:34;20.70;99.90
48744;DHT22;34538;48.836;9.174;2022-07-26T05:49:02;20.60;99.90
48744;DHT22;34538;48.836;9.174;2022-07-26T05:51:29;20.60;99.90
48744;DHT22;34538;48.836;9.174;2022-07-26T05:53:55;20.70;99.90
48744;DHT22;34538;48.836;9.174;2022-07-26T05:56:20;21.00;99.90
48744;DHT22;34538;48.836;9.174;2022-07-26T05:58:46;21.30;99.90
48744;DHT22;34538;48.836;9.174;2022-07-26T06:01:12;21.70;99.90
48744;DHT22;34538;48.836;9.174;2022-07-26T06:03:38;22.10;99.90
48744;DHT22;34538;48.836;9.174;2022-07-26T06:06:04;22.50;99.90
48744;DHT22;34538;48.836;9.174;2022-07-26T06:08:29;23.00;99.90
48744;DHT22;34538;48.836;9.174;2022-07-26T06:10:55;23.30;99.90
48744;DHT22;34538;48.836;9.174;2022-07-26T06:13:21;23.50;99.90
48744;DHT22;34538;48.836;9.174;2022-07-26T06:15:47;23.70;99.90
48744;DHT22;34538;48.836;9.174;2022-07-26T06:18:13;23.80;99.90
48744;DHT22;34538;48.836;9.174;2022-07-26T06:20:40;23.70;99.90
48744;DHT22;34538;48.836;9.174;2022-07-26T06:23:06;23.70;99.90
48744;DHT22;34538;48.836;9.174;2022-07-26T06:25:32;23.60;99.90
48744;DHT22;34538;48.836;9.174;2022-07-26T06:27:57;23.40;99.90
48744;DHT22;34538;48.836;9.174;2022-07-26T06:30:23;23.20;99.90
48744;DHT22;34538;48.836;9.174;2022-07-26T06:32:49;23.10;99.90
48744;DHT22;34538;48.836;9.174;2022-07-26T06:35:15;23.00;99.90
48744;DHT22;34538;48.836;9.174;2022-07-26T06:37:41;22.90;99.90
48744;DHT22;34538;48.836;9.174;2022-07-26T06:40:08;22.90;99.90
48744;DHT22;34538;48.836;9.174;2022-07-26T06:42:34;22.90;99.90
48744;DHT22;34538;48.836;9.174;2022-07-26T06:45:01;22.90;99.90
48744;DHT22;34538;48.836;9.174;2022-07-26T06:47:27;22.80;99.90
48744;DHT22;34538;48.836;9.174;2022-07-26T06:49:53;22.90;99.90
48744;DHT22;34538;48.836;9.174;2022-07-26T06:52:19;23.00;99.90
48744;DHT22;34538;48.836;9.174;2022-07-26T06:54:45;23.10;99.90
48744;DHT22;34538;48.836;9.174;2022-07-26T06:57:10;23.10;99.90
48744;DHT22;34538;48.836;9.174;2022-07-26T06:59:36;23.10;99.90
48744;DHT22;34538;48.836;9.174;2022-07-26T07:02:02;23.10;99.90
48744;DHT22;34538;48.836;9.174;2022-07-26T07:04:29;23.10;99.90
48744;DHT22;34538;48.836;9.174;2022-07-26T07:06:56;23.10;99.90
48744;DHT22;34538;48.836;9.174;2022-07-26T07:09:27;23.10;99.90
48744;DHT22;34538;48.836;9.174;2022-07-26T07:11:52;23.00;99.90
48744;DHT22;34538;48.836;9.174;2022-07-26T07:14:18;23.10;99.90
48744;DHT22;34538;48.836;9.174;2022-07-26T07:16:44;23.10;99.90
48744;DHT22;34538;48.836;9.174;2022-07-26T07:19:09;23.20;99.90
48744;DHT22;34538;48.836;9.174;2022-07-26T07:21:35;23.20;99.70
48744;DHT22;34538;48.836;9.174;2022-07-26T07:24:00;23.30;97.90
48744;DHT22;34538;48.836;9.174;2022-07-26T07:26:26;23.40;98.30
48744;DHT22;34538;48.836;9.174;2022-07-26T07:28:52;23.40;97.80
48744;DHT22;34538;48.836;9.174;2022-07-26T07:31:17;23.40;97.70
48744;DHT22;34538;48.836;9.174;2022-07-26T07:33:43;23.40;97.90
48744;DHT22;34538;48.836;9.174;2022-07-26T07:36:09;23.40;97.30
48744;DHT22;34538;48.836;9.174;2022-07-26T07:38:34;23.50;97.40
48744;DHT22;34538;48.836;9.174;2022-07-26T07:41:00;23.50;97.30
48744;DHT22;34538;48.836;9.174;2022-07-26T07:43:26;23.60;97.10
48744;DHT22;34538;48.836;9.174;2022-07-26T07:45:51;23.70;96.30
48744;DHT22;34538;48.836;9.174;2022-07-26T07:48:17;23.80;96.00
48744;DHT22;34538;48.836;9.174;2022-07-26T07:50:43;23.80;96.10
48744;DHT22;34538;48.836;9.174;2022-07-26T07:53:08;23.90;95.90
48744;DHT22;34538;48.836;9.174;2022-07-26T07:55:34;23.80;95.50
48744;DHT22;34538;48.836;9.174;2022-07-26T07:58:00;23.90;95.30
48744;DHT22;34538;48.836;9.174;2022-07-26T08:00:26;23.80;94.80
48744;DHT22;34538;48.836;9.174;2022-07-26T08:02:51;23.70;95.10
48744;DHT22;34538;48.836;9.174;2022-07-26T08:05:18;23.70;94.90
48744;DHT22;34538;48.836;9.174;2022-07-26T08:07:43;23.80;95.10
48744;DHT22;34538;48.836;9.174;2022-07-26T08:10:10;23.70;94.20
48744;DHT22;34538;48.836;9.174;2022-07-26T08:12:35;23.70;94.50
48744;DHT22;34538;48.836;9.174;2022-07-26T08:15:02;23.70;93.70
48744;DHT22;34538;48.836;9.174;2022-07-26T08:17:28;23.80;93.80
48744;DHT22;34538;48.836;9.174;2022-07-26T08:19:54;23.80;94.30
48744;DHT22;34538;48.836;9.174;2022-07-26T08:22:20;23.90;94.10
48744;DHT22;34538;48.836;9.174;2022-07-26T08:24:45;24.00;92.90
48744;DHT22;34538;48.836;9.174;2022-07-26T08:27:12;24.10;93.20
48744;DHT22;34538;48.836;9.174;2022-07-26T08:29:38;24.20;93.20
48744;DHT22;34538;48.836;9.174;2022-07-26T08:32:04;24.30;93.50
48744;DHT22;34538;48.836;9.174;2022-07-26T08:34:30;24.30;92.80
48744;DHT22;34538;48.836;9.174;2022-07-26T08:36:56;24.40;91.50
48744;DHT22;34538;48.836;9.174;2022-07-26T08:39:22;24.40;91.90
48744;DHT22;34538;48.836;9.174;2022-07-26T08:41:47;24.50;91.70
48744;DHT22;34538;48.836;9.174;2022-07-26T08:44:13;24.40;91.60
48744;DHT22;34538;48.836;9.174;2022-07-26T08:46:41;24.30;91.30
48744;DHT22;34538;48.836;9.174;2022-07-26T08:49:08;24.30;91.50
48744;DHT22;34538;48.836;9.174;2022-07-26T08:51:37;24.30;91.80
48744;DHT22;34538;48.836;9.174;2022-07-26T08:54:04;24.30;91.40
48744;DHT22;34538;48.836;9.174;2022-07-26T08:56:32;24.20;91.20
48744;DHT22;34538;48.836;9.174;2022-07-26T08:58:57;24.20;91.40
48744;DHT22;34538;48.836;9.174;2022-07-26T09:01:23;24.20;91.90
48744;DHT22;34538;48.836;9.174;2022-07-26T09:03:49;24.20;91.70
48744;DHT22;34538;48.836;9.174;2022-07-26T09:06:21;24.20;92.20
48744;DHT22;34538;48.836;9.174;2022-07-26T09:08:49;24.20;91.10
48744;DHT22;34538;48.836;9.174;2022-07-26T09:11:26;24.20;91.50
48744;DHT22;34538;48.836;9.174;2022-07-26T09:14:01;24.30;91.30
48744;DHT22;34538;48.836;9.174;2022-07-26T09:16:28;24.30;90.80
48744;DHT22;34538;48.836;9.174;2022-07-26T09:18:54;24.40;90.90
48744;DHT22;34538;48.836;9.174;2022-07-26T09:21:34;24.40;90.50
48744;DHT22;34538;48.836;9.174;2022-07-26T09:24:03;24.50;90.90
48744;DHT22;34538;48.836;9.174;2022-07-26T09:26:29;24.70;90.80
48744;DHT22;34538;48.836;9.174;2022-07-26T09:29:10;24.70;89.70
48744;DHT22;34538;48.836;9.174;2022-07-26T09:31:37;24.70;90.20
48744;DHT22;34538;48.836;9.174;2022-07-26T09:34:05;24.60;89.30
48744;DHT22;34538;48.836;9.174;2022-07-26T09:36:31;24.40;89.50
48744;DHT22;34538;48.836;9.174;2022-07-26T09:39:01;24.40;89.90
48744;DHT22;34538;48.836;9.174;2022-07-26T09:41:28;24.30;90.30
48744;DHT22;34538;48.836;9.174;2022-07-26T09:43:56;24.40;90.20
48744;DHT22;34538;48.836;9.174;2022-07-26T09:46:24;24.40;90.20
48744;DHT22;34538;48.836;9.174;2022-07-26T09:48:51;24.40;90.00
48744;DHT22;34538;48.836;9.174;2022-07-26T09:51:41;24.30;90.10
48744;DHT22;34538;48.836;9.174;2022-07-26T09:54:08;24.30;89.90
48744;DHT22;34538;48.836;9.174;2022-07-26T09:59:12;24.40;90.30
48744;DHT22;34538;48.836;9.174;2022-07-26T10:01:38;24.40;90.00
48744;DHT22;34538;48.836;9.174;2022-07-26T10:04:03;24.40;89.50
48744;DHT22;34538;48.836;9.174;2022-07-26T10:06:30;24.40;90.20
48744;DHT22;34538;48.836;9.174;2022-07-26T10:08:56;24.40;90.60
48744;DHT22;34538;48.836;9.174;2022-07-26T10:11:24;24.60;90.30
48744;DHT22;34538;48.836;9.174;2022-07-26T10:13:50;24.60;90.40
48744;DHT22;34538;48.836;9.174;2022-07-26T10:16:29;24.70;90.20
48744;DHT22;34538;48.836;9.174;2022-07-26T10:18:58;24.70;90.20
48744;DHT22;34538;48.836;9.174;2022-07-26T10:21:28;24.70;90.00
48744;DHT22;34538;48.836;9.174;2022-07-26T10:24:01;24.60;90.20
48744;DHT22;34538;48.836;9.174;2022-07-26T10:32:30;24.60;90.00
48744;DHT22;34538;48.836;9.174;2022-07-26T10:34:32;24.70;90.00
48744;DHT22;34538;48.836;9.174;2022-07-26T10:37:00;24.70;89.40
48744;DHT22;34538;48.836;9.174;2022-07-26T10:39:26;24.70;89.70
48744;DHT22;34538;48.836;9.174;2022-07-26T10:42:04;24.70;89.40
48744;DHT22;34538;48.836;9.174;2022-07-26T10:44:32;24.80;88.00
48744;DHT22;34538;48.836;9.174;2022-07-26T10:50:01;24.80;87.30
48744;DHT22;34538;48.836;9.174;2022-07-26T10:52:31;24.90;88.10
48744;DHT22;34538;48.836;9.174;2022-07-26T10:59:56;25.00;87.60
48744;DHT22;34538;48.836;9.174;2022-07-26T11:02:27;25.00;87.20
48744;DHT22;34538;48.836;9.174;2022-07-26T11:05:01;25.00;86.10
48744;DHT22;34538;48.836;9.174;2022-07-26T11:07:30;25.00;87.10
48744;DHT22;34538;48.836;9.174;2022-07-26T11:09:57;25.10;86.60
48744;DHT22;34538;48.836;9.174;2022-07-26T11:12:23;25.20;86.00
48744;DHT22;34538;48.836;9.174;2022-07-26T11:14:49;25.30;87.50
48744;DHT22;34538;48.836;9.174;2022-07-26T11:17:27;25.30;85.00
48744;DHT22;34538;48.836;9.174;2022-07-26T11:19:55;25.40;86.00
48744;DHT22;34538;48.836;9.174;2022-07-26T11:22:29;25.50;83.50
48744;DHT22;34538;48.836;9.174;2022-07-26T11:24:55;25.50;83.70
48744;DHT22;34538;48.836;9.174;2022-07-26T11:27:21;25.50;84.20
48744;DHT22;34538;48.836;9.174;2022-07-26T11:29:47;25.60;84.30
48744;DHT22;34538;48.836;9.174;2022-07-26T11:32:22;25.60;83.30
48744;DHT22;34538;48.836;9.174;2022-07-26T11:34:59;25.70;83.90
48744;DHT22;34538;48.836;9.174;2022-07-26T11:37:25;25.70;81.90
48744;DHT22;34538;48.836;9.174;2022-07-26T11:39:52;25.70;83.20
48744;DHT22;34538;48.836;9.174;2022-07-26T11:42:18;25.70;80.90
48744;DHT22;34538;48.836;9.174;2022-07-26T11:44:47;25.60;80.40
48744;DHT22;34538;48.836;9.174;2022-07-26T11:47:17;25.60;81.00
48744;DHT22;34538;48.836;9.174;2022-07-26T11:49:47;25.50;81.60
48744;DHT22;34538;48.836;9.174;2022-07-26T11:52:13;25.50;81.60
48744;DHT22;34538;48.836;9.174;2022-07-26T11:54:48;25.50;81.90
48744;DHT22;34538;48.836;9.174;2022-07-26T11:57:15;25.50;82.60
48744;DHT22;34538;48.836;9.174;2022-07-26T11:59:43;25.50;81.30
48744;DHT22;34538;48.836;9.174;2022-07-26T12:02:09;25.70;81.30
48744;DHT22;34538;48.836;9.174;2022-07-26T12:04:40;25.70;81.20
48744;DHT22;34538;48.836;9.174;2022-07-26T12:07:11;25.80;81.30
48744;DHT22;34538;48.836;9.174;2022-07-26T12:12:17;25.90;78.70
48744;DHT22;34538;48.836;9.174;2022-07-26T12:15:00;25.80;79.90
48744;DHT22;34538;48.836;9.174;2022-07-26T12:17:27;25.70;79.30
48744;DHT22;34538;48.836;9.174;2022-07-26T12:19:53;25.50;79.10
48744;DHT22;34538;48.836;9.174;2022-07-26T12:22:21;25.50;79.40
48744;DHT22;34538;48.836;9.174;2022-07-26T12:24:56;25.50;78.60
48744;DHT22;34538;48.836;9.174;2022-07-26T12:27:24;25.60;79.50
48744;DHT22;34538;48.836;9.174;2022-07-26T12:32:32;25.90;78.90
48744;DHT22;34538;48.836;9.174;2022-07-26T12:34:59;26.10;78.30
48744;DHT22;34538;48.836;9.174;2022-07-26T12:37:26;26.20;78.40
48744;DHT22;34538;48.836;9.174;2022-07-26T12:40:02;26.10;78.50
48744;DHT22;34538;48.836;9.174;2022-07-26T12:45:18;25.80;77.40
48744;DHT22;34538;48.836;9.174;2022-07-26T12:47:45;25.60;77.60
48744;DHT22;34538;48.836;9.174;2022-07-26T12:50:13;25.50;79.00
48744;DHT22;34538;48.836;9.174;2022-07-26T12:52:40;25.50;79.00
48744;DHT22;34538;48.836;9.174;2022-07-26T12:55:07;25.60;78.20
48744;DHT22;34538;48.836;9.174;2022-07-26T12:57:34;25.70;78.60
48744;DHT22;34538;48.836;9.174;2022-07-26T13:00:00;25.80;77.30
48744;DHT22;34538;48.836;9.174;2022-07-26T13:02:26;25.90;75.40
48744;DHT22;34538;48.836;9.174;2022-07-26T13:04:51;26.00;75.90
48744;DHT22;34538;48.836;9.174;2022-07-26T13:07:19;26.00;74.80
48744;DHT22;34538;48.836;9.174;2022-07-26T13:09:45;25.80;75.90
48744;DHT22;34538;48.836;9.174;2022-07-26T13:12:12;25.80;76.90
48744;DHT22;34538;48.836;9.174;2022-07-26T13:14:39;25.80;75.80
48744;DHT22;34538;48.836;9.174;2022-07-26T13:17:06;25.80;75.90
48744;DHT22;34538;48.836;9.174;2022-07-26T13:19:33;26.00;75.50
48744;DHT22;34538;48.836;9.174;2022-07-26T13:21:59;26.10;75.40
48744;DHT22;34538;48.836;9.174;2022-07-26T13:24:26;26.20;74.00
48744;DHT22;34538;48.836;9.174;2022-07-26T13:26:52;26.30;74.80
48744;DHT22;34538;48.836;9.174;2022-07-26T13:29:19;26.40;73.50
48744;DHT22;34538;48.836;9.174;2022-07-26T13:31:44;26.50;73.50
48744;DHT22;34538;48.836;9.174;2022-07-26T13:34:10;26.60;73.40
48744;DHT22;34538;48.836;9.174;2022-07-26T13:36:36;26.80;73.70
48744;DHT22;34538;48.836;9.174;2022-07-26T13:39:03;26.80;73.70
48744;DHT22;34538;48.836;9.174;2022-07-26T13:41:29;26.70;72.50
48744;DHT22;34538;48.836;9.174;2022-07-26T13:43:55;26.60;73.40
48744;DHT22;34538;48.836;9.174;2022-07-26T13:46:21;26.40;74.40
48744;DHT22;34538;48.836;9.174;2022-07-26T13:48:48;26.40;74.40
48744;DHT22;34538;48.836;9.174;2022-07-26T13:51:14;26.30;73.40
48744;DHT22;34538;48.836;9.174;2022-07-26T13:53:39;26.30;74.50
48744;DHT22;34538;48.836;9.174;2022-07-26T13:56:06;26.30;74.00
48744;DHT22;34538;48.836;9.174;2022-07-26T13:58:31;26.40;74.30
48744;DHT22;34538;48.836;9.174;2022-07-26T14:00:57;26.50;73.60
48744;DHT22;34538;48.836;9.174;2022-07-26T14:03:23;26.60;74.40
48744;DHT22;34538;48.836;9.174;2022-07-26T14:05:49;26.70;73.60
48744;DHT22;34538;48.836;9.174;2022-07-26T14:08:15;26.70;74.10
48744;DHT22;34538;48.836;9.174;2022-07-26T14:10:40;26.70;73.00
48744;DHT22;34538;48.836;9.174;2022-07-26T14:13:06;26.60;72.70
48744;DHT22;34538;48.836;9.174;2022-07-26T14:15:33;26.50;73.20
48744;DHT22;34538;48.836;9.174;2022-07-26T14:17:59;26.50;73.30
48744;DHT22;34538;48.836;9.174;2022-07-26T14:20:24;26.40;73.90
48744;DHT22;34538;48.836;9.174;2022-07-26T14:22:50;26.50;72.00
48744;DHT22;34538;48.836;9.174;2022-07-26T14:25:24;26.60;71.70
48744;DHT22;34538;48.836;9.174;2022-07-26T14:27:52;26.60;71.20
48744;DHT22;34538;48.836;9.174;2022-07-26T14:30:19;26.60;70.60
48744;DHT22;34538;48.836;9.174;2022-07-26T14:32:45;26.60;70.80
48744;DHT22;34538;48.836;9.174;2022-07-26T14:35:11;26.60;71.00
48744;DHT22;34538;48.836;9.174;2022-07-26T14:37:38;26.50;70.40
48744;DHT22;34538;48.836;9.174;2022-07-26T14:40:05;26.50;71.10
48744;DHT22;34538;48.836;9.174;2022-07-26T14:42:32;26.70;71.40
48744;DHT22;34538;48.836;9.174;2022-07-26T14:44:58;26.90;71.00
48744;DHT22;34538;48.836;9.174;2022-07-26T14:47:23;27.10;69.40
48744;DHT22;34538;48.836;9.174;2022-07-26T14:49:49;27.10;69.70
48744;DHT22;34538;48.836;9.174;2022-07-26T14:52:14;27.20;70.40
48744;DHT22;34538;48.836;9.174;2022-07-26T14:54:40;27.30;68.60
48744;DHT22;34538;48.836;9.174;2022-07-26T14:57:06;27.10;67.70
48744;DHT22;34538;48.836;9.174;2022-07-26T14:59:32;26.80;69.40
48744;DHT22;34538;48.836;9.174;2022-07-26T15:01:57;26.80;70.50
48744;DHT22;34538;48.836;9.174;2022-07-26T15:04:23;26.70;71.20
48744;DHT22;34538;48.836;9.174;2022-07-26T15:06:49;26.80;72.30
48744;DHT22;34538;48.836;9.174;2022-07-26T15:09:15;26.90;71.40
48744;DHT22;34538;48.836;9.174;2022-07-26T15:11:40;27.00;71.40
48744;DHT22;34538;48.836;9.174;2022-07-26T15:14:06;27.00;70.50
48744;DHT22;34538;48.836;9.174;2022-07-26T15:16:32;26.90;70.80
48744;DHT22;34538;48.836;9.174;2022-07-26T15:18:58;26.80;71.00
48744;DHT22;34538;48.836;9.174;2022-07-26T15:21:24;26.80;71.70
48744;DHT22;34538;48.836;9.174;2022-07-26T15:23:49;26.90;71.10
48744;DHT22;34538;48.836;9.174;2022-07-26T15:26:15;27.00;71.40
48744;DHT22;34538;48.836;9.174;2022-07-26T15:28:41;27.30;71.40
48744;DHT22;34538;48.836;9.174;2022-07-26T15:31:09;27.50;70.40
48744;DHT22;34538;48.836;9.174;2022-07-26T15:33:35;27.80;70.10
48744;DHT22;34538;48.836;9.174;2022-07-26T15:36:01;28.10;70.40
48744;DHT22;34538;48.836;9.174;2022-07-26T15:38:26;28.30;69.90
48744;DHT22;34538;48.836;9.174;2022-07-26T15:40:52;28.30;69.30
48744;DHT22;34538;48.836;9.174;2022-07-26T15:43:22;28.40;69.40
48744;DHT22;34538;48.836;9.174;2022-07-26T15:45:49;28.50;69.50
48744;DHT22;34538;48.836;9.174;2022-07-26T15:48:14;28.60;68.60
48744;DHT22;34538;48.836;9.174;2022-07-26T15:50:43;28.70;68.50